createdAt,value
2023-07-22T00:02:07.713Z,97506.25
2023-07-22T00:04:36.175Z,97503.38
2023-07-22T00:07:04.756Z,97498.19
2023-07-22T00:09:35.878Z,97498.41
2023-07-22T00:12:04.693Z,97507.09
2023-07-22T00:14:33.347Z,97499.81
2023-07-22T00:17:03.269Z,97497.75
2023-07-22T00:19:31.625Z,97501.28
2023-07-22T00:21:59.997Z,97499.22
2023-07-22T00:24:31.414Z,97501.72
2023-07-22T00:26:59.777Z,97500.44
2023-07-22T00:29:28.118Z,97501.91
2023-07-22T00:31:56.421Z,97503.34
2023-07-22T00:34:26.129Z,97503.13
2023-07-22T00:36:54.640Z,97498.56
2023-07-22T00:39:23.096Z,97494.84
2023-07-22T00:41:51.439Z,97507.44
2023-07-22T00:44:22.620Z,97502.69
2023-07-22T00:46:52.671Z,97505.19
2023-07-22T00:49:21.254Z,97505.59
2023-07-22T00:51:50.984Z,97508.88
2023-07-22T00:54:19.495Z,97503.91
2023-07-22T00:56:49.966Z,97500.59
2023-07-22T00:59:19.222Z,97505.50
2023-07-22T01:01:47.558Z,97503.00
2023-07-22T01:04:18.226Z,97510.47
2023-07-22T01:06:51.934Z,97504.03
2023-07-22T01:09:20.235Z,97497.22
2023-07-22T01:11:49.675Z,97496.16
2023-07-22T01:14:18.021Z,97497.38
2023-07-22T01:16:46.762Z,97502.34
2023-07-22T01:19:20.085Z,97507.28
2023-07-22T01:21:52.351Z,97497.97
2023-07-22T01:24:22.367Z,97497.53
2023-07-22T01:26:50.798Z,97498.78
2023-07-22T01:29:19.170Z,97500.03
2023-07-22T01:31:52.254Z,97490.09
2023-07-22T01:34:20.843Z,97493.97
2023-07-22T01:36:49.761Z,97497.91
2023-07-22T01:39:19.492Z,97493.97
2023-07-22T01:41:49.576Z,97504.25
2023-07-22T01:44:17.945Z,97497.44
2023-07-22T01:46:46.293Z,97495.97
2023-07-22T01:49:15.294Z,97500.72
2023-07-22T01:51:43.647Z,97502.97
2023-07-22T01:54:12.657Z,97496.34
2023-07-22T01:56:41.598Z,97498.38
2023-07-22T01:59:11.526Z,97504.31
2023-07-22T02:01:39.925Z,97514.44
2023-07-22T02:04:08.788Z,97505.75
2023-07-22T02:06:38.828Z,97503.25
2023-07-22T02:09:09.827Z,97509.03
2023-07-22T02:11:38.685Z,97506.53
2023-07-22T02:14:11.119Z,97506.09
2023-07-22T02:16:39.785Z,97510.00
2023-07-22T02:19:08.259Z,97507.72
2023-07-22T02:21:36.629Z,97503.78
2023-07-22T02:24:08.915Z,97511.19
2023-07-22T02:26:37.410Z,97505.16
2023-07-22T02:29:05.830Z,97505.75
2023-07-22T02:31:35.536Z,97507.00
2023-07-22T02:34:03.860Z,97511.72
2023-07-22T02:36:35.156Z,97516.66
2023-07-22T02:39:04.248Z,97523.84
2023-07-22T02:41:32.752Z,97524.25
2023-07-22T02:44:01.165Z,97516.59
2023-07-22T02:46:29.678Z,97515.13
2023-07-22T02:49:00.562Z,97509.31
2023-07-22T02:51:28.977Z,97515.06
2023-07-22T02:53:57.281Z,97509.09
2023-07-22T02:56:28.530Z,97511.31
2023-07-22T02:58:57.175Z,97513.38
2023-07-22T03:01:25.837Z,97518.31
2023-07-22T03:03:54.301Z,97518.69
2023-07-22T03:06:24.014Z,97520.91
2023-07-22T03:08:52.730Z,97527.31
2023-07-22T03:11:21.093Z,97545.41
2023-07-22T03:13:49.381Z,97542.94
2023-07-22T03:16:17.767Z,97544.94
2023-07-22T03:18:46.033Z,97549.69
2023-07-22T03:21:14.405Z,97548.16
2023-07-22T03:23:44.098Z,97557.63
2023-07-22T03:26:12.435Z,97547.47
2023-07-22T03:28:42.574Z,97543.72
2023-07-22T03:31:10.980Z,97553.78
2023-07-22T03:33:42.610Z,97559.53
2023-07-22T03:36:10.955Z,97564.44
2023-07-22T03:38:39.254Z,97562.16
2023-07-22T03:41:09.282Z,97567.03
2023-07-22T03:43:39.738Z,97570.94
2023-07-22T03:46:08.133Z,97570.28
2023-07-22T03:48:36.614Z,97566.97
2023-07-22T03:51:18.971Z,97577.06
2023-07-22T03:53:51.720Z,97576.59
2023-07-22T03:56:21.439Z,97575.31
2023-07-22T03:58:52.241Z,97576.13
2023-07-22T04:01:21.845Z,97574.47
2023-07-22T04:03:53.455Z,97581.84
2023-07-22T04:06:21.824Z,97582.88
2023-07-22T04:08:50.329Z,97591.56
2023-07-22T04:11:20.078Z,97592.56
2023-07-22T04:13:51.270Z,97583.72
2023-07-22T04:16:19.631Z,97581.22
2023-07-22T04:18:48.006Z,97585.94
2023-07-22T04:21:16.350Z,97592.97
2023-07-22T04:23:45.164Z,97599.13
2023-07-22T04:26:13.502Z,97596.25
2023-07-22T04:28:43.188Z,97595.41
2023-07-22T04:31:11.545Z,97598.94
2023-07-22T04:33:39.903Z,97589.06
2023-07-22T04:36:08.184Z,97591.47
2023-07-22T04:38:36.547Z,97585.69
2023-07-22T04:41:06.077Z,97580.41
2023-07-22T04:43:37.167Z,97579.56
2023-07-22T04:46:06.979Z,97582.06
2023-07-22T04:48:35.339Z,97574.50
2023-07-22T04:51:03.690Z,97580.31
2023-07-22T04:53:37.693Z,97586.13
2023-07-22T04:56:06.304Z,97580.19
2023-07-22T04:58:34.715Z,97581.47
2023-07-22T05:01:03.069Z,97583.41
2023-07-22T05:03:32.821Z,97575.66
2023-07-22T05:06:01.302Z,97590.97
2023-07-22T05:08:32.327Z,97590.22
2023-07-22T05:11:00.682Z,97589.44
2023-07-22T05:13:31.542Z,97585.81
2023-07-22T05:15:59.833Z,97586.06
2023-07-22T05:18:28.136Z,97587.00
2023-07-22T05:20:57.850Z,97591.63
2023-07-22T05:23:26.185Z,97590.84
2023-07-22T05:25:54.854Z,97590.88
2023-07-22T05:28:24.926Z,97582.72
2023-07-22T05:30:53.566Z,97586.28
2023-07-22T05:33:21.944Z,97585.31
2023-07-22T05:35:53.175Z,97574.28
2023-07-22T05:38:22.955Z,97576.59
2023-07-22T05:40:54.783Z,97577.50
2023-07-22T05:43:23.286Z,97579.03
2023-07-22T05:45:53.692Z,97582.41
2023-07-22T05:48:22.789Z,97577.69
2023-07-22T05:50:51.447Z,97590.13
2023-07-22T05:53:19.823Z,97587.31
2023-07-22T05:55:49.477Z,97579.28
2023-07-22T05:58:21.177Z,97583.66
2023-07-22T06:00:50.146Z,97595.88
2023-07-22T06:03:22.144Z,97593.44
2023-07-22T06:05:50.572Z,97584.38
2023-07-22T06:08:18.915Z,97592.06
2023-07-22T06:10:48.746Z,97595.25
2023-07-22T06:13:23.068Z,97595.69
2023-07-22T06:15:54.156Z,97601.50
2023-07-22T06:18:22.499Z,97594.72
2023-07-22T06:20:51.210Z,97591.44
2023-07-22T06:23:19.553Z,97599.53
2023-07-22T06:25:49.242Z,97590.84
2023-07-22T06:28:17.628Z,97599.97
2023-07-22T06:30:45.958Z,97592.56
2023-07-22T06:33:14.319Z,97602.28
2023-07-22T06:35:47.763Z,97603.31
2023-07-22T06:38:18.417Z,97590.25
2023-07-22T06:40:48.219Z,97597.69
2023-07-22T06:43:16.930Z,97593.13
2023-07-22T06:45:45.280Z,97598.75
2023-07-22T06:48:13.655Z,97589.38
2023-07-22T06:50:41.987Z,97588.94
2023-07-22T06:53:10.511Z,97597.19
2023-07-22T06:55:41.418Z,97592.41
2023-07-22T06:58:11.091Z,97588.66
2023-07-22T07:00:42.286Z,97589.00
2023-07-22T07:03:10.642Z,97587.53
2023-07-22T07:05:41.801Z,97590.81
2023-07-22T07:08:11.318Z,97599.47
2023-07-22T07:10:41.329Z,97599.22
2023-07-22T07:13:11.431Z,97601.44
2023-07-22T07:15:39.937Z,97596.84
2023-07-22T07:18:08.380Z,97599.88
2023-07-22T07:20:39.177Z,97603.75
2023-07-22T07:23:07.459Z,97604.09
2023-07-22T07:25:35.807Z,97605.06
2023-07-22T07:28:05.090Z,97606.81
2023-07-22T07:30:34.880Z,97609.84
2023-07-22T07:33:03.315Z,97600.38
2023-07-22T07:35:32.092Z,97608.78
2023-07-22T07:38:00.531Z,97613.47
2023-07-22T07:40:28.858Z,97618.59
2023-07-22T07:42:57.260Z,97611.38
2023-07-22T07:45:25.674Z,97610.84
2023-07-22T07:47:55.340Z,97616.91
2023-07-22T07:50:23.772Z,97606.19
2023-07-22T07:52:52.086Z,97611.31
2023-07-22T07:55:20.656Z,97612.41
2023-07-22T07:57:49.110Z,97614.94
2023-07-22T08:00:18.506Z,97613.69
2023-07-22T08:02:46.866Z,97611.25
2023-07-22T08:05:17.432Z,97610.72
2023-07-22T08:07:45.935Z,97600.16
2023-07-22T08:10:14.377Z,97612.22
2023-07-22T08:12:42.737Z,97606.81
2023-07-22T08:15:11.885Z,97607.88
2023-07-22T08:17:40.253Z,97605.41
2023-07-22T08:20:11.436Z,97610.03
2023-07-22T08:22:41.129Z,97606.72
2023-07-22T08:25:13.544Z,97603.53
2023-07-22T08:27:41.997Z,97615.88
2023-07-22T08:30:11.615Z,97618.38
2023-07-22T08:32:39.963Z,97610.19
2023-07-22T08:35:09.397Z,97605.84
2023-07-22T08:37:37.884Z,97609.09
2023-07-22T08:40:10.908Z,97610.13
2023-07-22T08:42:40.596Z,97611.63
2023-07-22T08:45:12.872Z,97607.94
2023-07-22T08:47:47.769Z,97602.09
2023-07-22T08:50:22.723Z,97596.34
2023-07-22T08:52:51.600Z,97599.69
2023-07-22T08:55:21.684Z,97597.91
2023-07-22T08:57:52.363Z,97597.75
2023-07-22T09:00:21.076Z,97595.94
2023-07-22T09:02:50.346Z,97597.44
2023-07-22T09:05:24.479Z,97594.81
2023-07-22T09:07:53.946Z,97606.00
2023-07-22T09:10:25.174Z,97605.84
2023-07-22T09:12:54.191Z,97605.53
2023-07-22T09:15:24.348Z,97603.41
2023-07-22T09:17:52.810Z,97604.13
2023-07-22T09:20:22.508Z,97602.13
2023-07-22T09:23:07.299Z,97605.50
2023-07-22T09:25:42.996Z,97603.16
2023-07-22T09:28:11.982Z,97599.63
2023-07-22T09:30:42.028Z,97604.38
2023-07-22T09:33:22.772Z,97597.41
2023-07-22T09:35:52.231Z,97587.66
2023-07-22T09:38:26.431Z,97585.00
2023-07-22T09:40:56.380Z,97590.03
2023-07-22T09:43:28.285Z,97583.81
2023-07-22T09:45:56.622Z,97582.03
2023-07-22T09:48:26.393Z,97588.75
2023-07-22T09:51:02.016Z,97584.47
2023-07-22T09:53:30.301Z,97569.94
2023-07-22T09:56:06.484Z,97577.97
2023-07-22T09:58:38.730Z,97575.34
2023-07-22T10:01:08.123Z,97574.84
2023-07-22T10:03:39.749Z,97576.84
2023-07-22T10:06:09.210Z,97567.16
2023-07-22T10:08:41.179Z,97565.88
2023-07-22T10:11:13.000Z,97556.97
2023-07-22T10:13:41.711Z,97560.91
2023-07-22T10:16:10.345Z,97566.41
2023-07-22T10:18:48.817Z,97565.09
2023-07-22T10:21:18.115Z,97560.81
2023-07-22T10:23:49.065Z,97560.03
2023-07-22T10:26:29.182Z,97545.06
2023-07-22T10:29:11.250Z,97547.78
2023-07-22T10:31:39.727Z,97549.69
2023-07-22T10:34:08.156Z,97545.88
2023-07-22T10:36:38.368Z,97548.88
2023-07-22T10:39:06.742Z,97550.53
2023-07-22T10:41:41.629Z,97544.81
2023-07-22T10:44:13.657Z,97546.75
2023-07-22T10:46:44.892Z,97542.34
2023-07-22T10:49:14.640Z,97541.25
2023-07-22T10:51:43.122Z,97546.16
2023-07-22T10:54:15.293Z,97538.50
2023-07-22T10:56:46.103Z,97536.56
2023-07-22T10:59:19.206Z,97538.50
2023-07-22T11:01:48.035Z,97530.03
2023-07-22T11:04:36.700Z,97527.31
2023-07-22T11:07:12.101Z,97521.31
2023-07-22T11:09:45.429Z,97519.69
2023-07-22T11:12:21.630Z,97518.63
2023-07-22T11:14:52.469Z,97514.03
2023-07-22T11:17:30.855Z,97510.22
2023-07-22T11:20:00.752Z,97509.41
2023-07-22T11:22:30.502Z,97504.22
2023-07-22T11:24:59.898Z,97500.94
2023-07-22T11:27:30.670Z,97492.44
2023-07-22T11:30:08.438Z,97487.81
2023-07-22T11:32:36.911Z,97484.53
2023-07-22T11:35:05.973Z,97493.00
2023-07-22T11:37:34.805Z,97494.09
2023-07-22T11:40:03.337Z,97500.41
2023-07-22T11:42:35.549Z,97493.00
2023-07-22T11:45:04.233Z,97486.72
2023-07-22T11:47:32.934Z,97491.06
2023-07-22T11:50:02.236Z,97490.81
2023-07-22T11:52:30.783Z,97485.34
2023-07-22T11:55:04.993Z,97478.78
2023-07-22T11:57:34.696Z,97475.22
2023-07-22T12:00:03.169Z,97473.84
2023-07-22T12:02:32.907Z,97469.78
2023-07-22T12:05:06.297Z,97461.03
2023-07-22T12:07:37.226Z,97462.13
2023-07-22T12:10:08.471Z,97454.16
2023-07-22T12:12:40.553Z,97468.09
2023-07-22T12:15:16.736Z,97461.50
2023-07-22T12:17:50.768Z,97456.56
2023-07-22T12:20:20.294Z,97451.63
2023-07-22T12:22:48.623Z,97450.22
2023-07-22T12:25:17.113Z,97452.88
2023-07-22T12:27:47.246Z,97447.09
2023-07-22T12:30:18.780Z,97441.88
2023-07-22T12:32:48.944Z,97445.69
2023-07-22T12:35:17.855Z,97440.69
2023-07-22T12:37:46.291Z,97431.88
2023-07-22T12:40:15.130Z,97423.06
2023-07-22T12:42:43.581Z,97424.72
2023-07-22T12:45:13.573Z,97436.19
2023-07-22T12:47:41.964Z,97425.03
2023-07-22T12:50:11.624Z,97428.59
2023-07-22T12:52:40.206Z,97430.28
2023-07-22T12:55:09.838Z,97435.25
2023-07-22T12:57:38.262Z,97426.75
2023-07-22T13:00:10.814Z,97435.53
2023-07-22T13:02:41.599Z,97419.09
2023-07-22T13:05:10.839Z,97430.31
2023-07-22T13:07:39.451Z,97420.50
2023-07-22T13:10:11.988Z,97409.25
2023-07-22T13:12:40.635Z,97428.41
2023-07-22T13:15:10.048Z,97419.13
2023-07-22T13:17:40.139Z,97414.50
2023-07-22T13:20:10.217Z,97399.75
2023-07-22T13:22:38.854Z,97404.41
2023-07-22T13:25:10.077Z,97402.72
2023-07-22T13:27:39.162Z,97398.63
2023-07-22T13:30:09.978Z,97400.25
2023-07-22T13:32:40.522Z,97408.97
2023-07-22T13:35:11.706Z,97407.84
2023-07-22T13:37:40.190Z,97411.13
2023-07-22T13:40:12.235Z,97391.59
2023-07-22T13:42:41.129Z,97397.91
2023-07-22T13:45:10.721Z,97400.03
2023-07-22T13:47:39.197Z,97389.91
2023-07-22T13:50:08.406Z,97395.09
2023-07-22T13:52:38.330Z,97394.31
2023-07-22T13:55:07.905Z,97399.31
2023-07-22T13:57:36.375Z,97386.22
2023-07-22T14:00:09.550Z,97382.94
2023-07-22T14:02:38.222Z,97380.75
2023-07-22T14:05:08.060Z,97375.00
2023-07-22T14:07:38.135Z,97378.84
2023-07-22T14:10:09.397Z,97377.72
2023-07-22T14:12:49.316Z,97379.69
2023-07-22T14:15:17.758Z,97370.06
2023-07-22T14:17:46.589Z,97376.09
2023-07-22T14:20:15.686Z,97376.94
2023-07-22T14:22:45.906Z,97374.19
2023-07-22T14:25:14.354Z,97388.16
2023-07-22T14:27:42.854Z,97367.94
2023-07-22T14:30:12.275Z,97369.56
2023-07-22T14:32:40.876Z,97361.91
2023-07-22T14:35:10.532Z,97363.56
2023-07-22T14:37:39.858Z,97366.53
2023-07-22T14:40:11.626Z,97365.44
2023-07-22T14:42:40.289Z,97371.41
2023-07-22T14:45:10.066Z,97368.63
2023-07-22T14:47:38.774Z,97371.34
2023-07-22T14:50:08.353Z,97379.78
2023-07-22T14:52:36.872Z,97373.19
2023-07-22T14:55:06.106Z,97377.06
2023-07-22T14:57:35.957Z,97371.56
2023-07-22T15:00:05.259Z,97372.41
2023-07-22T15:02:33.823Z,97372.69
2023-07-22T15:05:02.351Z,97365.53
2023-07-22T15:07:31.427Z,97374.00
2023-07-22T15:10:00.784Z,97372.06
2023-07-22T15:12:29.325Z,97373.16
2023-07-22T15:14:59.154Z,97367.38
2023-07-22T15:17:27.596Z,97363.53
2023-07-22T15:19:55.960Z,97363.25
2023-07-22T15:22:24.396Z,97352.09
2023-07-22T15:24:52.824Z,97362.22
2023-07-22T15:27:21.158Z,97361.69
2023-07-22T15:29:49.579Z,97357.31
2023-07-22T15:32:19.340Z,97346.38
2023-07-22T15:34:47.819Z,97353.25
2023-07-22T15:37:16.530Z,97355.81
2023-07-22T15:39:45.182Z,97359.09
2023-07-22T15:42:13.986Z,97350.31
2023-07-22T15:44:42.406Z,97351.44
2023-07-22T15:47:10.820Z,97341.56
2023-07-22T15:49:40.593Z,97351.72
2023-07-22T15:52:09.858Z,97350.34
2023-07-22T15:54:38.259Z,97350.34
2023-07-22T15:57:07.250Z,97351.22
2023-07-22T15:59:35.858Z,97348.78
2023-07-22T16:02:04.846Z,97346.63
2023-07-22T16:04:37.686Z,97357.09
2023-07-22T16:07:09.333Z,97345.66
2023-07-22T16:09:37.965Z,97350.31
2023-07-22T16:12:07.328Z,97353.63
2023-07-22T16:14:36.261Z,97348.41
2023-07-22T16:17:04.768Z,97344.63
2023-07-22T16:19:33.163Z,97355.56
2023-07-22T16:22:01.577Z,97351.50
2023-07-22T16:24:31.396Z,97350.66
2023-07-22T16:26:59.784Z,97348.47
2023-07-22T16:29:28.160Z,97351.22
2023-07-22T16:31:56.661Z,97351.22
2023-07-22T16:34:25.094Z,97342.72
2023-07-22T16:36:53.500Z,97338.59
2023-07-22T16:39:23.346Z,97349.84
2023-07-22T16:41:53.747Z,97347.09
2023-07-22T16:44:23.681Z,97346.28
2023-07-22T16:46:52.010Z,97341.34
2023-07-22T16:49:20.456Z,97347.91
2023-07-22T16:51:49.027Z,97343.84
2023-07-22T16:54:17.449Z,97351.75
2023-07-22T16:56:45.816Z,97349.88
2023-07-22T16:59:15.936Z,97347.69
2023-07-22T17:01:44.352Z,97353.44
2023-07-22T17:04:12.828Z,97354.00
2023-07-22T17:06:41.246Z,97344.50
2023-07-22T17:09:09.723Z,97354.63
2023-07-22T17:11:38.135Z,97349.72
2023-07-22T17:14:06.726Z,97355.22
2023-07-22T17:16:36.588Z,97351.94
2023-07-22T17:19:05.027Z,97350.03
2023-07-22T17:21:33.391Z,97352.78
2023-07-22T17:24:01.778Z,97354.97
2023-07-22T17:26:30.168Z,97347.88
2023-07-22T17:29:01.391Z,97344.34
2023-07-22T17:31:30.014Z,97346.28
2023-07-22T17:34:00.001Z,97349.56
2023-07-22T17:36:28.812Z,97353.13
2023-07-22T17:38:57.206Z,97347.94
2023-07-22T17:41:25.766Z,97346.81
2023-07-22T17:43:54.531Z,97346.00
2023-07-22T17:46:22.984Z,97344.38
2023-07-22T17:48:51.319Z,97343.56
2023-07-22T17:51:21.078Z,97334.56
2023-07-22T17:53:49.470Z,97341.41
2023-07-22T17:56:17.867Z,97332.63
2023-07-22T17:58:46.334Z,97336.44
2023-07-22T18:01:14.805Z,97332.63
2023-07-22T18:03:43.279Z,97336.16
2023-07-22T18:06:11.755Z,97330.69
2023-07-22T18:08:41.560Z,97336.09
2023-07-22T18:11:09.974Z,97322.47
2023-07-22T18:13:38.616Z,97327.91
2023-07-22T18:16:07.402Z,97329.47
2023-07-22T18:18:35.822Z,97333.22
2023-07-22T18:21:04.303Z,97335.94
2023-07-22T18:23:32.982Z,97333.97
2023-07-22T18:26:02.745Z,97335.56
2023-07-22T18:28:33.869Z,97339.06
2023-07-22T18:31:02.364Z,97337.34
2023-07-22T18:33:30.768Z,97342.47
2023-07-22T18:35:59.212Z,97343.22
2023-07-22T18:38:28.751Z,97340.19
2023-07-22T18:40:57.266Z,97342.84
2023-07-22T18:43:27.173Z,97347.09
2023-07-22T18:45:55.564Z,97348.41
2023-07-22T18:48:23.986Z,97350.53
2023-07-22T18:50:57.370Z,97352.59
2023-07-22T18:53:25.812Z,97355.78
2023-07-22T18:55:54.190Z,97358.41
2023-07-22T18:58:22.618Z,97355.59
2023-07-22T19:00:53.127Z,97362.53
2023-07-22T19:03:21.531Z,97352.13
2023-07-22T19:05:53.023Z,97357.44
2023-07-22T19:08:25.848Z,97368.78
2023-07-22T19:10:55.134Z,97372.75
2023-07-22T19:13:23.545Z,97372.38
2023-07-22T19:15:55.572Z,97370.91
2023-07-22T19:18:23.957Z,97380.31
2023-07-22T19:21:00.436Z,97368.50
2023-07-22T19:23:29.501Z,97375.75
2023-07-22T19:25:58.917Z,97381.38
2023-07-22T19:28:33.379Z,97383.69
2023-07-22T19:31:03.128Z,97386.56
2023-07-22T19:33:32.454Z,97393.84
2023-07-22T19:36:07.371Z,97400.72
2023-07-22T19:38:36.972Z,97398.19
2023-07-22T19:41:07.400Z,97397.78
2023-07-22T19:43:36.546Z,97400.09
2023-07-22T19:46:08.580Z,97398.59
2023-07-22T19:48:38.013Z,97405.25
2023-07-22T19:51:08.728Z,97399.66
2023-07-22T19:53:37.379Z,97393.44
2023-07-22T19:56:09.815Z,97393.78
2023-07-22T19:58:39.341Z,97397.25
2023-07-22T20:01:11.341Z,97409.09
2023-07-22T20:03:41.861Z,97403.59
2023-07-22T20:06:11.482Z,97402.72
2023-07-22T20:08:41.390Z,97412.97
2023-07-22T20:11:10.045Z,97407.59
2023-07-22T20:13:38.892Z,97410.50
2023-07-22T20:16:08.802Z,97421.69
2023-07-22T20:18:38.190Z,97418.28
2023-07-22T20:21:06.645Z,97418.88
2023-07-22T20:23:35.023Z,97428.50
2023-07-22T20:26:03.525Z,97424.84
2023-07-22T20:28:34.907Z,97420.81
2023-07-22T20:31:03.361Z,97422.13
2023-07-22T20:33:33.779Z,97421.44
2023-07-22T20:36:02.396Z,97421.28
2023-07-22T20:38:32.727Z,97414.94
2023-07-22T20:41:06.319Z,97418.78
2023-07-22T20:43:35.756Z,97424.63
2023-07-22T20:46:05.682Z,97426.97
2023-07-22T20:48:35.519Z,97427.66
2023-07-22T20:51:04.243Z,97423.56
2023-07-22T20:53:32.664Z,97425.06
2023-07-22T20:56:01.739Z,97430.09
2023-07-22T20:58:31.296Z,97429.97
2023-07-22T21:01:03.104Z,97425.03
2023-07-22T21:03:31.955Z,97429.25
2023-07-22T21:06:01.969Z,97429.94
2023-07-22T21:08:36.876Z,97422.28
2023-07-22T21:11:05.294Z,97430.25
2023-07-22T21:13:33.662Z,97425.09
2023-07-22T21:16:02.080Z,97431.19
2023-07-22T21:18:30.636Z,97437.84
2023-07-22T21:20:59.069Z,97437.72
2023-07-22T21:23:28.911Z,97440.03
2023-07-22T21:25:58.248Z,97440.47
2023-07-22T21:28:27.076Z,97440.91
2023-07-22T21:30:55.828Z,97445.69
2023-07-22T21:33:24.473Z,97448.63
2023-07-22T21:35:53.482Z,97444.75
2023-07-22T21:38:21.965Z,97448.72
2023-07-22T21:40:52.349Z,97446.47
2023-07-22T21:43:20.864Z,97454.19
2023-07-22T21:45:50.515Z,97450.09
2023-07-22T21:48:20.923Z,97448.91
2023-07-22T21:50:49.317Z,97450.75
2023-07-22T21:53:17.956Z,97447.44
2023-07-22T21:55:47.473Z,97448.72
2023-07-22T21:58:20.537Z,97447.91
2023-07-22T22:00:48.980Z,97450.25
2023-07-22T22:03:17.583Z,97447.53
2023-07-22T22:05:46.008Z,97448.78
2023-07-22T22:08:14.401Z,97447.16
2023-07-22T22:10:44.241Z,97449.25
2023-07-22T22:13:12.615Z,97459.69
2023-07-22T22:15:42.359Z,97464.69
2023-07-22T22:18:10.762Z,97459.75
2023-07-22T22:20:39.171Z,97463.72
2023-07-22T22:23:08.340Z,97470.41
2023-07-22T22:25:37.812Z,97470.22
2023-07-22T22:28:06.452Z,97460.91
2023-07-22T22:30:34.842Z,97465.91
2023-07-22T22:33:04.632Z,97458.25
2023-07-22T22:35:32.988Z,97458.69
2023-07-22T22:38:01.345Z,97463.69
2023-07-22T22:40:29.730Z,97465.66
2023-07-22T22:42:59.562Z,97463.38
2023-07-22T22:45:28.103Z,97464.66
2023-07-22T22:47:56.487Z,97455.34
2023-07-22T22:50:26.393Z,97463.28
2023-07-22T22:52:54.998Z,97462.09
2023-07-22T22:55:23.338Z,97462.75
2023-07-22T22:57:51.805Z,97464.00
2023-07-22T23:00:23.375Z,97461.72
2023-07-22T23:02:53.273Z,97465.06
2023-07-22T23:05:21.732Z,97474.66
2023-07-22T23:07:52.176Z,97473.22
2023-07-22T23:10:20.729Z,97471.19
2023-07-22T23:12:49.045Z,97468.94
2023-07-22T23:15:17.717Z,97478.44
2023-07-22T23:17:46.121Z,97478.88
2023-07-22T23:20:15.147Z,97476.63
2023-07-22T23:22:44.918Z,97477.88
2023-07-22T23:25:14.662Z,97482.06
2023-07-22T23:27:43.013Z,97475.47
2023-07-22T23:30:12.975Z,97477.75
2023-07-22T23:32:41.902Z,97474.44
2023-07-22T23:35:11.293Z,97467.84
2023-07-22T23:37:39.642Z,97471.81
2023-07-22T23:40:09.854Z,97473.03
2023-07-22T23:42:39.535Z,97468.28
2023-07-22T23:45:09.250Z,97478.47
2023-07-22T23:47:37.649Z,97481.59
2023-07-22T23:50:07.108Z,97471.25
2023-07-22T23:52:35.426Z,97473.34
2023-07-22T23:55:04.081Z,97472.13
2023-07-22T23:57:32.458Z,97469.84
